Quinnipiac River @ Wallingford, Ct

Quinnipiac River at Wallingford
 Total Drainage Area: 115 sq. miles 
 Drainage Area Controlled by Corps Dams: 0 sq. miles (0%) 
 Warning Flow/Stage: 2,285 cfs / 9.0 feet 
 Flood Flow/Stage: 2,925 cfs / 10.0 feet 
Date Time
(Eastern)
Stage
(ft)
Flow
(cfs)
CSM
(cfs / sq. mi.)
Jan-31 04:00 pm 4.33 331 2.9
Jan-31 03:00 pm 4.35 335 2.9
Jan-31 02:00 pm 4.36 338 2.9
Jan-31 01:00 pm 4.37 340 3.0
Jan-31 12:00 pm 4.36 338 2.9
Jan-31 11:00 am 4.37 340 3.0
Jan-31 10:00 am 4.38 342 3.0
Jan-31 09:00 am 4.38 342 3.0
Jan-31 08:00 am 4.39 344 3.0
Jan-31 07:00 am 4.41 349 3.0
Jan-31 06:00 am 4.42 351 3.1
Jan-31 05:00 am 4.43 353 3.1
Jan-31 04:00 am 4.45 358 3.1
Jan-31 03:00 am 4.46 360 3.1
Jan-31 02:00 am 4.47 363 3.2
Jan-31 01:00 am 4.48 365 3.2
Jan-31 12:00 am 4.49 367 3.2
Jan-30 11:00 pm 4.50 370 3.2
Jan-30 10:00 pm 4.51 372 3.2
Jan-30 09:00 pm 4.52 374 3.3
Jan-30 08:00 pm 4.52 374 3.3
Jan-30 07:00 pm 4.53 377 3.3
Jan-30 06:00 pm 4.54 379 3.3
Jan-30 05:00 pm 4.55 381 3.3
Jan-30 04:00 pm 4.56 384 3.3
Report Generated January 31, 2023 04:21 pm